sensor_id;sensor_type;location;lat;lon;timestamp;P1;durP1;ratioP1;P2;durP2;ratioP2
20669;SDS011;10494;50.868;4.180;2023-05-07T00:00:26;12.70;;;6.15;;
20669;SDS011;10494;50.868;4.180;2023-05-07T00:02:52;12.18;;;5.88;;
20669;SDS011;10494;50.868;4.180;2023-05-07T00:05:18;11.63;;;5.75;;
20669;SDS011;10494;50.868;4.180;2023-05-07T00:07:44;15.02;;;5.25;;
20669;SDS011;10494;50.868;4.180;2023-05-07T00:10:10;16.52;;;5.50;;
20669;SDS011;10494;50.868;4.180;2023-05-07T00:12:37;18.08;;;6.22;;
20669;SDS011;10494;50.868;4.180;2023-05-07T00:15:03;15.18;;;5.93;;
20669;SDS011;10494;50.868;4.180;2023-05-07T00:17:29;13.68;;;5.70;;
20669;SDS011;10494;50.868;4.180;2023-05-07T00:19:56;13.30;;;6.00;;
20669;SDS011;10494;50.868;4.180;2023-05-07T00:22:22;10.57;;;6.38;;
20669;SDS011;10494;50.868;4.180;2023-05-07T00:24:47;18.70;;;6.20;;
20669;SDS011;10494;50.868;4.180;2023-05-07T00:27:13;19.98;;;6.30;;
20669;SDS011;10494;50.868;4.180;2023-05-07T00:29:40;14.75;;;6.38;;
20669;SDS011;10494;50.868;4.180;2023-05-07T00:32:05;18.98;;;6.68;;
20669;SDS011;10494;50.868;4.180;2023-05-07T00:34:31;12.75;;;6.18;;
20669;SDS011;10494;50.868;4.180;2023-05-07T00:36:57;16.10;;;5.88;;
20669;SDS011;10494;50.868;4.180;2023-05-07T00:39:22;15.80;;;5.68;;
20669;SDS011;10494;50.868;4.180;2023-05-07T00:41:48;20.52;;;6.68;;
20669;SDS011;10494;50.868;4.180;2023-05-07T00:44:13;15.40;;;7.13;;
20669;SDS011;10494;50.868;4.180;2023-05-07T00:46:39;11.80;;;6.40;;
20669;SDS011;10494;50.868;4.180;2023-05-07T00:49:06;13.63;;;6.38;;
20669;SDS011;10494;50.868;4.180;2023-05-07T00:51:32;10.43;;;5.68;;
20669;SDS011;10494;50.868;4.180;2023-05-07T00:53:59;13.60;;;5.70;;
20669;SDS011;10494;50.868;4.180;2023-05-07T00:56:26;10.18;;;4.95;;
20669;SDS011;10494;50.868;4.180;2023-05-07T00:58:52;14.52;;;5.53;;
20669;SDS011;10494;50.868;4.180;2023-05-07T01:01:18;13.35;;;6.32;;
20669;SDS011;10494;50.868;4.180;2023-05-07T01:03:44;10.35;;;5.18;;
20669;SDS011;10494;50.868;4.180;2023-05-07T01:06:09;14.60;;;5.38;;
20669;SDS011;10494;50.868;4.180;2023-05-07T01:08:38;11.55;;;5.30;;
20669;SDS011;10494;50.868;4.180;2023-05-07T01:11:06;11.50;;;5.38;;
20669;SDS011;10494;50.868;4.180;2023-05-07T01:13:33;13.15;;;6.05;;
20669;SDS011;10494;50.868;4.180;2023-05-07T01:16:00;10.13;;;5.05;;
20669;SDS011;10494;50.868;4.180;2023-05-07T01:18:25;17.58;;;5.95;;
20669;SDS011;10494;50.868;4.180;2023-05-07T01:20:52;12.65;;;5.90;;
20669;SDS011;10494;50.868;4.180;2023-05-07T01:23:19;14.45;;;5.97;;
20669;SDS011;10494;50.868;4.180;2023-05-07T01:25:52;12.75;;;5.47;;
20669;SDS011;10494;50.868;4.180;2023-05-07T01:28:18;14.35;;;5.13;;
20669;SDS011;10494;50.868;4.180;2023-05-07T01:30:46;10.82;;;5.50;;
20669;SDS011;10494;50.868;4.180;2023-05-07T01:33:15;12.23;;;5.28;;
20669;SDS011;10494;50.868;4.180;2023-05-07T01:35:47;11.05;;;5.43;;
20669;SDS011;10494;50.868;4.180;2023-05-07T01:38:16;11.93;;;5.72;;
20669;SDS011;10494;50.868;4.180;2023-05-07T01:40:43;10.90;;;5.55;;
20669;SDS011;10494;50.868;4.180;2023-05-07T01:43:10;13.00;;;5.50;;
20669;SDS011;10494;50.868;4.180;2023-05-07T01:45:36;13.45;;;5.90;;
20669;SDS011;10494;50.868;4.180;2023-05-07T01:48:03;16.58;;;6.22;;
20669;SDS011;10494;50.868;4.180;2023-05-07T01:50:29;12.15;;;5.13;;
20669;SDS011;10494;50.868;4.180;2023-05-07T01:52:57;16.80;;;6.05;;
20669;SDS011;10494;50.868;4.180;2023-05-07T01:55:23;10.55;;;5.05;;
20669;SDS011;10494;50.868;4.180;2023-05-07T01:57:49;10.43;;;4.88;;
20669;SDS011;10494;50.868;4.180;2023-05-07T02:00:15;11.40;;;5.22;;
20669;SDS011;10494;50.868;4.180;2023-05-07T02:02:40;10.65;;;5.03;;
20669;SDS011;10494;50.868;4.180;2023-05-07T02:05:06;14.55;;;5.65;;
20669;SDS011;10494;50.868;4.180;2023-05-07T02:07:32;10.55;;;4.95;;
20669;SDS011;10494;50.868;4.180;2023-05-07T02:09:58;8.25;;;4.70;;
20669;SDS011;10494;50.868;4.180;2023-05-07T02:12:24;15.05;;;5.93;;
20669;SDS011;10494;50.868;4.180;2023-05-07T02:14:49;13.30;;;5.75;;
20669;SDS011;10494;50.868;4.180;2023-05-07T02:17:15;15.10;;;6.32;;
20669;SDS011;10494;50.868;4.180;2023-05-07T02:19:41;9.55;;;5.18;;
20669;SDS011;10494;50.868;4.180;2023-05-07T02:22:07;10.52;;;5.65;;
20669;SDS011;10494;50.868;4.180;2023-05-07T02:24:32;10.65;;;5.15;;
20669;SDS011;10494;50.868;4.180;2023-05-07T02:26:58;12.82;;;5.80;;
20669;SDS011;10494;50.868;4.180;2023-05-07T02:29:24;7.85;;;5.10;;
20669;SDS011;10494;50.868;4.180;2023-05-07T02:31:49;8.30;;;5.00;;
20669;SDS011;10494;50.868;4.180;2023-05-07T02:34:19;9.85;;;5.93;;
20669;SDS011;10494;50.868;4.180;2023-05-07T02:36:45;10.52;;;4.88;;
20669;SDS011;10494;50.868;4.180;2023-05-07T02:39:11;10.48;;;5.93;;
20669;SDS011;10494;50.868;4.180;2023-05-07T02:41:37;11.43;;;5.93;;
20669;SDS011;10494;50.868;4.180;2023-05-07T02:44:03;15.48;;;5.68;;
20669;SDS011;10494;50.868;4.180;2023-05-07T02:46:29;10.43;;;5.75;;
20669;SDS011;10494;50.868;4.180;2023-05-07T02:48:54;13.48;;;5.80;;
20669;SDS011;10494;50.868;4.180;2023-05-07T02:51:21;19.10;;;6.28;;
20669;SDS011;10494;50.868;4.180;2023-05-07T02:53:47;9.68;;;5.55;;
20669;SDS011;10494;50.868;4.180;2023-05-07T02:56:13;11.98;;;5.60;;
20669;SDS011;10494;50.868;4.180;2023-05-07T02:58:39;13.30;;;6.10;;
20669;SDS011;10494;50.868;4.180;2023-05-07T03:01:05;12.00;;;5.85;;
20669;SDS011;10494;50.868;4.180;2023-05-07T03:03:31;14.50;;;6.25;;
20669;SDS011;10494;50.868;4.180;2023-05-07T03:05:57;11.05;;;5.55;;
20669;SDS011;10494;50.868;4.180;2023-05-07T03:08:23;8.90;;;5.63;;
20669;SDS011;10494;50.868;4.180;2023-05-07T03:10:49;11.98;;;5.53;;
20669;SDS011;10494;50.868;4.180;2023-05-07T03:13:15;9.68;;;5.05;;
20669;SDS011;10494;50.868;4.180;2023-05-07T03:15:40;10.50;;;5.40;;
20669;SDS011;10494;50.868;4.180;2023-05-07T03:18:06;12.40;;;6.15;;
20669;SDS011;10494;50.868;4.180;2023-05-07T03:20:32;14.10;;;6.30;;
20669;SDS011;10494;50.868;4.180;2023-05-07T03:22:58;13.27;;;5.85;;
20669;SDS011;10494;50.868;4.180;2023-05-07T03:25:23;11.80;;;6.13;;
20669;SDS011;10494;50.868;4.180;2023-05-07T03:27:49;14.27;;;5.88;;
20669;SDS011;10494;50.868;4.180;2023-05-07T03:30:15;13.65;;;6.82;;
20669;SDS011;10494;50.868;4.180;2023-05-07T03:32:40;12.68;;;6.38;;
20669;SDS011;10494;50.868;4.180;2023-05-07T03:35:06;12.07;;;6.10;;
20669;SDS011;10494;50.868;4.180;2023-05-07T03:37:32;9.40;;;6.18;;
20669;SDS011;10494;50.868;4.180;2023-05-07T03:39:58;9.10;;;5.78;;
20669;SDS011;10494;50.868;4.180;2023-05-07T03:42:23;14.70;;;5.68;;
20669;SDS011;10494;50.868;4.180;2023-05-07T03:44:49;15.52;;;6.40;;
20669;SDS011;10494;50.868;4.180;2023-05-07T03:47:15;13.13;;;6.80;;
20669;SDS011;10494;50.868;4.180;2023-05-07T03:49:41;11.77;;;6.10;;
20669;SDS011;10494;50.868;4.180;2023-05-07T03:52:06;10.85;;;6.13;;
20669;SDS011;10494;50.868;4.180;2023-05-07T03:54:32;13.45;;;5.75;;
20669;SDS011;10494;50.868;4.180;2023-05-07T03:56:58;10.10;;;6.40;;
20669;SDS011;10494;50.868;4.180;2023-05-07T03:59:24;12.40;;;5.97;;
20669;SDS011;10494;50.868;4.180;2023-05-07T04:01:49;14.25;;;6.82;;
20669;SDS011;10494;50.868;4.180;2023-05-07T04:04:15;11.45;;;6.15;;
20669;SDS011;10494;50.868;4.180;2023-05-07T04:06:41;11.13;;;5.82;;
20669;SDS011;10494;50.868;4.180;2023-05-07T04:09:07;10.98;;;5.65;;
20669;SDS011;10494;50.868;4.180;2023-05-07T04:11:33;14.02;;;6.20;;
20669;SDS011;10494;50.868;4.180;2023-05-07T04:13:58;15.00;;;5.80;;
20669;SDS011;10494;50.868;4.180;2023-05-07T04:16:24;15.63;;;7.00;;
20669;SDS011;10494;50.868;4.180;2023-05-07T04:18:50;10.13;;;5.75;;
20669;SDS011;10494;50.868;4.180;2023-05-07T04:21:16;9.73;;;5.63;;
20669;SDS011;10494;50.868;4.180;2023-05-07T04:23:43;10.30;;;5.85;;
20669;SDS011;10494;50.868;4.180;2023-05-07T04:26:08;17.23;;;6.07;;
20669;SDS011;10494;50.868;4.180;2023-05-07T04:28:34;10.25;;;5.95;;
20669;SDS011;10494;50.868;4.180;2023-05-07T04:31:01;11.52;;;5.97;;
20669;SDS011;10494;50.868;4.180;2023-05-07T04:33:27;11.43;;;5.60;;
20669;SDS011;10494;50.868;4.180;2023-05-07T04:35:53;11.45;;;6.47;;
20669;SDS011;10494;50.868;4.180;2023-05-07T04:38:18;9.32;;;5.82;;
20669;SDS011;10494;50.868;4.180;2023-05-07T04:40:44;9.85;;;5.55;;
20669;SDS011;10494;50.868;4.180;2023-05-07T04:43:11;15.48;;;6.03;;
20669;SDS011;10494;50.868;4.180;2023-05-07T04:45:38;13.02;;;6.32;;
20669;SDS011;10494;50.868;4.180;2023-05-07T04:48:06;13.32;;;7.03;;
20669;SDS011;10494;50.868;4.180;2023-05-07T04:50:32;13.90;;;6.13;;
20669;SDS011;10494;50.868;4.180;2023-05-07T04:52:58;17.10;;;5.97;;
20669;SDS011;10494;50.868;4.180;2023-05-07T04:55:23;11.32;;;6.03;;
20669;SDS011;10494;50.868;4.180;2023-05-07T04:57:49;15.02;;;6.07;;
20669;SDS011;10494;50.868;4.180;2023-05-07T05:00:15;15.88;;;5.85;;
20669;SDS011;10494;50.868;4.180;2023-05-07T05:02:41;15.18;;;6.15;;
20669;SDS011;10494;50.868;4.180;2023-05-07T05:05:07;11.55;;;5.85;;
20669;SDS011;10494;50.868;4.180;2023-05-07T05:07:33;13.07;;;6.43;;
20669;SDS011;10494;50.868;4.180;2023-05-07T05:10:01;12.15;;;6.38;;
20669;SDS011;10494;50.868;4.180;2023-05-07T05:12:28;10.95;;;5.85;;
20669;SDS011;10494;50.868;4.180;2023-05-07T05:14:54;10.32;;;6.20;;
20669;SDS011;10494;50.868;4.180;2023-05-07T05:17:20;12.10;;;5.90;;
20669;SDS011;10494;50.868;4.180;2023-05-07T05:19:45;10.32;;;5.80;;
20669;SDS011;10494;50.868;4.180;2023-05-07T05:22:11;12.27;;;5.90;;
20669;SDS011;10494;50.868;4.180;2023-05-07T05:24:37;13.82;;;6.20;;
20669;SDS011;10494;50.868;4.180;2023-05-07T05:27:02;13.02;;;6.30;;
20669;SDS011;10494;50.868;4.180;2023-05-07T05:29:28;10.57;;;6.28;;
20669;SDS011;10494;50.868;4.180;2023-05-07T05:31:54;9.43;;;6.07;;
20669;SDS011;10494;50.868;4.180;2023-05-07T05:34:20;7.70;;;5.03;;
20669;SDS011;10494;50.868;4.180;2023-05-07T05:36:47;9.07;;;5.75;;
20669;SDS011;10494;50.868;4.180;2023-05-07T05:39:12;10.77;;;6.30;;
20669;SDS011;10494;50.868;4.180;2023-05-07T05:41:39;11.75;;;6.57;;
20669;SDS011;10494;50.868;4.180;2023-05-07T05:44:05;12.75;;;6.03;;
20669;SDS011;10494;50.868;4.180;2023-05-07T05:46:30;13.00;;;6.50;;
20669;SDS011;10494;50.868;4.180;2023-05-07T05:48:56;13.95;;;6.57;;
20669;SDS011;10494;50.868;4.180;2023-05-07T05:51:22;17.30;;;7.50;;
20669;SDS011;10494;50.868;4.180;2023-05-07T05:53:48;13.07;;;5.80;;
20669;SDS011;10494;50.868;4.180;2023-05-07T05:56:14;14.15;;;6.80;;
20669;SDS011;10494;50.868;4.180;2023-05-07T05:58:41;16.80;;;6.93;;
20669;SDS011;10494;50.868;4.180;2023-05-07T06:01:06;13.32;;;7.28;;
20669;SDS011;10494;50.868;4.180;2023-05-07T06:03:32;12.73;;;7.35;;
20669;SDS011;10494;50.868;4.180;2023-05-07T06:05:58;14.30;;;6.82;;
20669;SDS011;10494;50.868;4.180;2023-05-07T06:08:25;13.15;;;6.15;;
20669;SDS011;10494;50.868;4.180;2023-05-07T06:10:51;15.02;;;6.88;;
20669;SDS011;10494;50.868;4.180;2023-05-07T06:13:17;17.25;;;7.38;;
20669;SDS011;10494;50.868;4.180;2023-05-07T06:15:42;11.80;;;6.18;;
20669;SDS011;10494;50.868;4.180;2023-05-07T06:18:08;18.65;;;7.13;;
20669;SDS011;10494;50.868;4.180;2023-05-07T06:20:33;25.98;;;6.93;;
20669;SDS011;10494;50.868;4.180;2023-05-07T06:22:59;21.85;;;8.02;;
20669;SDS011;10494;50.868;4.180;2023-05-07T06:25:25;13.50;;;6.53;;
20669;SDS011;10494;50.868;4.180;2023-05-07T06:27:50;16.40;;;7.55;;
20669;SDS011;10494;50.868;4.180;2023-05-07T06:30:16;16.98;;;7.60;;
20669;SDS011;10494;50.868;4.180;2023-05-07T06:32:42;12.10;;;7.18;;
20669;SDS011;10494;50.868;4.180;2023-05-07T06:35:07;16.42;;;7.88;;
20669;SDS011;10494;50.868;4.180;2023-05-07T06:37:33;19.33;;;8.32;;
20669;SDS011;10494;50.868;4.180;2023-05-07T06:39:59;10.95;;;7.18;;
20669;SDS011;10494;50.868;4.180;2023-05-07T06:42:25;17.00;;;6.88;;
20669;SDS011;10494;50.868;4.180;2023-05-07T06:44:51;14.85;;;7.38;;
20669;SDS011;10494;50.868;4.180;2023-05-07T06:47:17;15.52;;;7.07;;
20669;SDS011;10494;50.868;4.180;2023-05-07T06:49:42;11.98;;;6.43;;
20669;SDS011;10494;50.868;4.180;2023-05-07T06:52:08;14.13;;;7.10;;
20669;SDS011;10494;50.868;4.180;2023-05-07T06:54:34;14.48;;;7.00;;
20669;SDS011;10494;50.868;4.180;2023-05-07T06:56:59;15.73;;;7.43;;
20669;SDS011;10494;50.868;4.180;2023-05-07T06:59:26;20.88;;;7.15;;
20669;SDS011;10494;50.868;4.180;2023-05-07T07:01:52;15.13;;;7.20;;
20669;SDS011;10494;50.868;4.180;2023-05-07T07:04:19;14.77;;;7.28;;
20669;SDS011;10494;50.868;4.180;2023-05-07T07:06:47;15.85;;;7.10;;
20669;SDS011;10494;50.868;4.180;2023-05-07T07:09:13;13.90;;;5.82;;
20669;SDS011;10494;50.868;4.180;2023-05-07T07:11:47;13.98;;;6.47;;
20669;SDS011;10494;50.868;4.180;2023-05-07T07:14:15;12.30;;;7.32;;
20669;SDS011;10494;50.868;4.180;2023-05-07T07:16:41;14.45;;;6.60;;
20669;SDS011;10494;50.868;4.180;2023-05-07T07:19:07;12.25;;;6.45;;
20669;SDS011;10494;50.868;4.180;2023-05-07T07:21:33;12.73;;;6.90;;
20669;SDS011;10494;50.868;4.180;2023-05-07T07:23:58;13.00;;;6.68;;
20669;SDS011;10494;50.868;4.180;2023-05-07T07:26:24;9.77;;;5.70;;
20669;SDS011;10494;50.868;4.180;2023-05-07T07:28:50;12.65;;;5.88;;
20669;SDS011;10494;50.868;4.180;2023-05-07T07:31:15;11.80;;;6.25;;
20669;SDS011;10494;50.868;4.180;2023-05-07T07:33:41;13.55;;;6.57;;
20669;SDS011;10494;50.868;4.180;2023-05-07T07:36:07;11.20;;;6.05;;
20669;SDS011;10494;50.868;4.180;2023-05-07T07:38:33;10.13;;;5.75;;
20669;SDS011;10494;50.868;4.180;2023-05-07T07:40:59;10.85;;;5.88;;
20669;SDS011;10494;50.868;4.180;2023-05-07T07:43:27;11.77;;;5.28;;
20669;SDS011;10494;50.868;4.180;2023-05-07T07:45:53;9.50;;;5.32;;
20669;SDS011;10494;50.868;4.180;2023-05-07T07:48:18;11.35;;;5.50;;
20669;SDS011;10494;50.868;4.180;2023-05-07T07:50:44;11.93;;;5.22;;
20669;SDS011;10494;50.868;4.180;2023-05-07T07:53:09;11.23;;;5.00;;
20669;SDS011;10494;50.868;4.180;2023-05-07T07:55:38;6.65;;;4.50;;
20669;SDS011;10494;50.868;4.180;2023-05-07T07:58:05;9.15;;;4.38;;
20669;SDS011;10494;50.868;4.180;2023-05-07T08:00:30;10.98;;;4.25;;
20669;SDS011;10494;50.868;4.180;2023-05-07T08:02:56;8.75;;;4.32;;
20669;SDS011;10494;50.868;4.180;2023-05-07T08:05:22;12.00;;;4.90;;
20669;SDS011;10494;50.868;4.180;2023-05-07T08:07:48;8.77;;;5.60;;
20669;SDS011;10494;50.868;4.180;2023-05-07T08:10:18;11.75;;;5.32;;
20669;SDS011;10494;50.868;4.180;2023-05-07T08:12:50;10.02;;;5.07;;
20669;SDS011;10494;50.868;4.180;2023-05-07T08:15:16;10.93;;;5.35;;
20669;SDS011;10494;50.868;4.180;2023-05-07T08:17:42;11.88;;;5.97;;
20669;SDS011;10494;50.868;4.180;2023-05-07T08:20:08;11.43;;;4.95;;
20669;SDS011;10494;50.868;4.180;2023-05-07T08:22:34;11.13;;;4.68;;
20669;SDS011;10494;50.868;4.180;2023-05-07T08:25:01;7.55;;;4.00;;
20669;SDS011;10494;50.868;4.180;2023-05-07T08:27:27;9.45;;;4.93;;
20669;SDS011;10494;50.868;4.180;2023-05-07T08:29:53;10.80;;;4.70;;
20669;SDS011;10494;50.868;4.180;2023-05-07T08:32:19;12.50;;;4.60;;
20669;SDS011;10494;50.868;4.180;2023-05-07T08:34:45;8.75;;;4.20;;
20669;SDS011;10494;50.868;4.180;2023-05-07T08:37:11;8.50;;;3.90;;
20669;SDS011;10494;50.868;4.180;2023-05-07T08:39:37;11.73;;;3.58;;
20669;SDS011;10494;50.868;4.180;2023-05-07T08:42:03;11.82;;;4.20;;
20669;SDS011;10494;50.868;4.180;2023-05-07T08:44:32;6.28;;;3.35;;
20669;SDS011;10494;50.868;4.180;2023-05-07T08:47:02;12.25;;;4.30;;
20669;SDS011;10494;50.868;4.180;2023-05-07T08:49:28;9.73;;;4.15;;
20669;SDS011;10494;50.868;4.180;2023-05-07T08:51:53;11.60;;;4.65;;
20669;SDS011;10494;50.868;4.180;2023-05-07T08:54:21;9.77;;;5.20;;
20669;SDS011;10494;50.868;4.180;2023-05-07T08:56:46;12.52;;;5.43;;
20669;SDS011;10494;50.868;4.180;2023-05-07T08:59:12;9.20;;;5.38;;
20669;SDS011;10494;50.868;4.180;2023-05-07T09:01:38;12.70;;;5.70;;
20669;SDS011;10494;50.868;4.180;2023-05-07T09:04:04;15.90;;;6.32;;
20669;SDS011;10494;50.868;4.180;2023-05-07T09:06:31;9.82;;;5.32;;
20669;SDS011;10494;50.868;4.180;2023-05-07T09:08:58;15.82;;;6.95;;
20669;SDS011;10494;50.868;4.180;2023-05-07T09:11:26;11.13;;;6.00;;
20669;SDS011;10494;50.868;4.180;2023-05-07T09:13:55;9.43;;;5.43;;
20669;SDS011;10494;50.868;4.180;2023-05-07T09:16:23;12.15;;;6.18;;
20669;SDS011;10494;50.868;4.180;2023-05-07T09:18:53;12.25;;;6.05;;
20669;SDS011;10494;50.868;4.180;2023-05-07T09:21:20;10.98;;;5.47;;
20669;SDS011;10494;50.868;4.180;2023-05-07T09:23:48;7.70;;;5.35;;
20669;SDS011;10494;50.868;4.180;2023-05-07T09:26:16;16.38;;;5.63;;
20669;SDS011;10494;50.868;4.180;2023-05-07T09:28:41;10.68;;;6.05;;
20669;SDS011;10494;50.868;4.180;2023-05-07T09:31:07;9.90;;;5.45;;
20669;SDS011;10494;50.868;4.180;2023-05-07T09:33:33;10.82;;;5.50;;
20669;SDS011;10494;50.868;4.180;2023-05-07T09:36:03;9.38;;;5.70;;
20669;SDS011;10494;50.868;4.180;2023-05-07T09:38:34;12.23;;;6.03;;
20669;SDS011;10494;50.868;4.180;2023-05-07T09:41:10;8.85;;;5.45;;
20669;SDS011;10494;50.868;4.180;2023-05-07T09:43:37;14.93;;;6.00;;
20669;SDS011;10494;50.868;4.180;2023-05-07T09:46:07;13.40;;;6.35;;
20669;SDS011;10494;50.868;4.180;2023-05-07T09:48:37;12.32;;;6.60;;
20669;SDS011;10494;50.868;4.180;2023-05-07T09:51:06;10.90;;;6.65;;
20669;SDS011;10494;50.868;4.180;2023-05-07T09:53:56;11.23;;;5.78;;
20669;SDS011;10494;50.868;4.180;2023-05-07T09:56:22;8.82;;;5.03;;
20669;SDS011;10494;50.868;4.180;2023-05-07T09:58:49;12.57;;;5.55;;
20669;SDS011;10494;50.868;4.180;2023-05-07T10:01:17;10.18;;;5.45;;
20669;SDS011;10494;50.868;4.180;2023-05-07T10:03:46;9.10;;;5.18;;
20669;SDS011;10494;50.868;4.180;2023-05-07T10:06:15;9.65;;;4.78;;
20669;SDS011;10494;50.868;4.180;2023-05-07T10:08:42;8.00;;;4.13;;
20669;SDS011;10494;50.868;4.180;2023-05-07T10:11:08;6.50;;;3.53;;
20669;SDS011;10494;50.868;4.180;2023-05-07T10:13:35;6.45;;;3.70;;
20669;SDS011;10494;50.868;4.180;2023-05-07T10:16:05;8.90;;;3.92;;
20669;SDS011;10494;50.868;4.180;2023-05-07T10:18:31;8.40;;;4.32;;
20669;SDS011;10494;50.868;4.180;2023-05-07T10:23:47;8.95;;;4.55;;
20669;SDS011;10494;50.868;4.180;2023-05-07T10:26:15;12.40;;;5.20;;
20669;SDS011;10494;50.868;4.180;2023-05-07T10:28:44;10.63;;;5.22;;
20669;SDS011;10494;50.868;4.180;2023-05-07T10:33:50;11.10;;;5.35;;
20669;SDS011;10494;50.868;4.180;2023-05-07T10:36:18;8.13;;;5.30;;
20669;SDS011;10494;50.868;4.180;2023-05-07T10:38:44;10.45;;;5.53;;
20669;SDS011;10494;50.868;4.180;2023-05-07T10:41:11;8.77;;;4.70;;
20669;SDS011;10494;50.868;4.180;2023-05-07T10:43:43;10.15;;;5.47;;
20669;SDS011;10494;50.868;4.180;2023-05-07T10:46:19;10.00;;;4.63;;
20669;SDS011;10494;50.868;4.180;2023-05-07T10:51:31;8.50;;;4.20;;
20669;SDS011;10494;50.868;4.180;2023-05-07T10:56:36;6.85;;;5.05;;
20669;SDS011;10494;50.868;4.180;2023-05-07T11:01:58;11.75;;;5.03;;
20669;SDS011;10494;50.868;4.180;2023-05-07T11:04:28;9.13;;;5.55;;
20669;SDS011;10494;50.868;4.180;2023-05-07T11:15:43;7.22;;;3.60;;
20669;SDS011;10494;50.868;4.180;2023-05-07T11:18:03;7.80;;;4.10;;
20669;SDS011;10494;50.868;4.180;2023-05-07T11:26:07;6.82;;;3.70;;
20669;SDS011;10494;50.868;4.180;2023-05-07T11:28:38;6.32;;;2.95;;
20669;SDS011;10494;50.868;4.180;2023-05-07T11:31:07;5.75;;;3.40;;
20669;SDS011;10494;50.868;4.180;2023-05-07T11:33:34;5.95;;;3.08;;
20669;SDS011;10494;50.868;4.180;2023-05-07T11:36:01;5.50;;;2.63;;
20669;SDS011;10494;50.868;4.180;2023-05-07T11:38:29;5.57;;;3.22;;
20669;SDS011;10494;50.868;4.180;2023-05-07T11:40:56;6.38;;;3.55;;
20669;SDS011;10494;50.868;4.180;2023-05-07T11:43:23;6.43;;;4.05;;
20669;SDS011;10494;50.868;4.180;2023-05-07T11:45:49;4.30;;;3.28;;
20669;SDS011;10494;50.868;4.180;2023-05-07T11:48:16;6.35;;;3.63;;
20669;SDS011;10494;50.868;4.180;2023-05-07T11:50:51;6.15;;;3.63;;
20669;SDS011;10494;50.868;4.180;2023-05-07T11:53:20;6.72;;;5.18;;
20669;SDS011;10494;50.868;4.180;2023-05-07T11:55:52;13.63;;;6.40;;
20669;SDS011;10494;50.868;4.180;2023-05-07T11:58:21;7.50;;;5.82;;
20669;SDS011;10494;50.868;4.180;2023-05-07T12:00:49;8.07;;;6.13;;
20669;SDS011;10494;50.868;4.180;2023-05-07T12:03:18;11.68;;;6.80;;
20669;SDS011;10494;50.868;4.180;2023-05-07T12:05:45;7.88;;;7.05;;
20669;SDS011;10494;50.868;4.180;2023-05-07T12:08:17;12.05;;;8.95;;
20669;SDS011;10494;50.868;4.180;2023-05-07T12:10:44;9.35;;;8.32;;
20669;SDS011;10494;50.868;4.180;2023-05-07T12:13:19;9.77;;;7.55;;
20669;SDS011;10494;50.868;4.180;2023-05-07T12:15:46;13.50;;;8.90;;
20669;SDS011;10494;50.868;4.180;2023-05-07T12:18:18;11.93;;;10.05;;
20669;SDS011;10494;50.868;4.180;2023-05-07T12:20:45;14.93;;;9.00;;
20669;SDS011;10494;50.868;4.180;2023-05-07T12:23:11;10.40;;;9.32;;
20669;SDS011;10494;50.868;4.180;2023-05-07T12:25:38;9.65;;;8.65;;
20669;SDS011;10494;50.868;4.180;2023-05-07T12:28:05;13.05;;;8.98;;
20669;SDS011;10494;50.868;4.180;2023-05-07T12:30:37;8.40;;;6.57;;
20669;SDS011;10494;50.868;4.180;2023-05-07T12:33:03;12.75;;;7.75;;
20669;SDS011;10494;50.868;4.180;2023-05-07T12:35:35;9.52;;;7.40;;
20669;SDS011;10494;50.868;4.180;2023-05-07T12:38:09;10.45;;;8.25;;
20669;SDS011;10494;50.868;4.180;2023-05-07T12:43:03;9.52;;;8.18;;
20669;SDS011;10494;50.868;4.180;2023-05-07T12:45:29;10.77;;;8.18;;
20669;SDS011;10494;50.868;4.180;2023-05-07T12:47:54;10.38;;;8.27;;
20669;SDS011;10494;50.868;4.180;2023-05-07T12:50:21;9.65;;;7.90;;
20669;SDS011;10494;50.868;4.180;2023-05-07T12:52:47;10.45;;;9.35;;
20669;SDS011;10494;50.868;4.180;2023-05-07T12:55:16;10.10;;;8.70;;
20669;SDS011;10494;50.868;4.180;2023-05-07T12:57:47;9.60;;;8.60;;
20669;SDS011;10494;50.868;4.180;2023-05-07T13:00:14;10.57;;;8.65;;
20669;SDS011;10494;50.868;4.180;2023-05-07T13:02:41;9.77;;;8.25;;
20669;SDS011;10494;50.868;4.180;2023-05-07T13:05:09;10.35;;;8.35;;
20669;SDS011;10494;50.868;4.180;2023-05-07T13:07:35;10.13;;;7.93;;
20669;SDS011;10494;50.868;4.180;2023-05-07T13:10:02;9.55;;;7.70;;
20669;SDS011;10494;50.868;4.180;2023-05-07T13:12:28;9.48;;;8.40;;
20669;SDS011;10494;50.868;4.180;2023-05-07T13:14:54;10.25;;;8.63;;
20669;SDS011;10494;50.868;4.180;2023-05-07T13:17:20;11.07;;;9.00;;
20669;SDS011;10494;50.868;4.180;2023-05-07T13:19:45;11.23;;;9.45;;
20669;SDS011;10494;50.868;4.180;2023-05-07T13:22:11;11.73;;;9.75;;
20669;SDS011;10494;50.868;4.180;2023-05-07T13:24:37;12.90;;;11.50;;
20669;SDS011;10494;50.868;4.180;2023-05-07T13:27:03;14.98;;;11.70;;
20669;SDS011;10494;50.868;4.180;2023-05-07T13:29:30;13.05;;;10.68;;
20669;SDS011;10494;50.868;4.180;2023-05-07T13:31:57;13.70;;;10.60;;
20669;SDS011;10494;50.868;4.180;2023-05-07T13:34:22;15.02;;;12.05;;
20669;SDS011;10494;50.868;4.180;2023-05-07T13:36:48;15.13;;;13.32;;
20669;SDS011;10494;50.868;4.180;2023-05-07T13:39:14;15.30;;;12.90;;
20669;SDS011;10494;50.868;4.180;2023-05-07T13:41:40;13.40;;;11.73;;
20669;SDS011;10494;50.868;4.180;2023-05-07T13:44:06;15.65;;;12.43;;
20669;SDS011;10494;50.868;4.180;2023-05-07T13:46:31;16.17;;;12.35;;
20669;SDS011;10494;50.868;4.180;2023-05-07T13:48:57;15.68;;;13.35;;
20669;SDS011;10494;50.868;4.180;2023-05-07T13:51:23;16.08;;;11.65;;
20669;SDS011;10494;50.868;4.180;2023-05-07T13:53:49;18.35;;;11.93;;
20669;SDS011;10494;50.868;4.180;2023-05-07T13:56:15;13.63;;;11.88;;
20669;SDS011;10494;50.868;4.180;2023-05-07T13:58:41;11.27;;;8.23;;
20669;SDS011;10494;50.868;4.180;2023-05-07T14:01:06;8.75;;;6.97;;
20669;SDS011;10494;50.868;4.180;2023-05-07T14:03:32;8.82;;;6.70;;
20669;SDS011;10494;50.868;4.180;2023-05-07T14:05:59;9.27;;;5.97;;
20669;SDS011;10494;50.868;4.180;2023-05-07T14:08:26;5.85;;;4.28;;
20669;SDS011;10494;50.868;4.180;2023-05-07T14:10:52;4.80;;;3.50;;
20669;SDS011;10494;50.868;4.180;2023-05-07T14:13:18;4.97;;;3.90;;
20669;SDS011;10494;50.868;4.180;2023-05-07T14:15:43;4.20;;;3.20;;
20669;SDS011;10494;50.868;4.180;2023-05-07T14:18:14;5.50;;;2.95;;
20669;SDS011;10494;50.868;4.180;2023-05-07T14:20:40;4.88;;;3.28;;
20669;SDS011;10494;50.868;4.180;2023-05-07T14:23:06;16.08;;;4.90;;
20669;SDS011;10494;50.868;4.180;2023-05-07T14:25:31;6.10;;;3.25;;
20669;SDS011;10494;50.868;4.180;2023-05-07T14:27:57;4.97;;;2.72;;
20669;SDS011;10494;50.868;4.180;2023-05-07T14:30:24;3.55;;;2.78;;
20669;SDS011;10494;50.868;4.180;2023-05-07T14:32:50;6.07;;;3.13;;
20669;SDS011;10494;50.868;4.180;2023-05-07T14:35:16;4.93;;;2.88;;
20669;SDS011;10494;50.868;4.180;2023-05-07T14:37:42;5.07;;;3.13;;
20669;SDS011;10494;50.868;4.180;2023-05-07T14:40:09;7.03;;;4.22;;
20669;SDS011;10494;50.868;4.180;2023-05-07T14:42:35;6.35;;;3.75;;
20669;SDS011;10494;50.868;4.180;2023-05-07T14:45:00;8.65;;;4.32;;
20669;SDS011;10494;50.868;4.180;2023-05-07T14:47:26;5.95;;;4.30;;
20669;SDS011;10494;50.868;4.180;2023-05-07T14:49:52;8.18;;;4.80;;
20669;SDS011;10494;50.868;4.180;2023-05-07T14:52:18;8.55;;;5.32;;
20669;SDS011;10494;50.868;4.180;2023-05-07T14:54:43;7.60;;;4.85;;
20669;SDS011;10494;50.868;4.180;2023-05-07T14:57:10;8.07;;;4.75;;
20669;SDS011;10494;50.868;4.180;2023-05-07T14:59:38;6.88;;;4.72;;
20669;SDS011;10494;50.868;4.180;2023-05-07T15:02:04;6.93;;;4.32;;
20669;SDS011;10494;50.868;4.180;2023-05-07T15:04:30;10.85;;;6.70;;